Time;durP1;ratioP1;P1;durP2;ratioP2;P2;SDS_P1;SDS_P2;PMS_P1;PMS_P2;Temp;Humidity;BMP_temperature;BMP_pressure;BME280_temperature;BME280_humidity;BME280_pressure;Samples;Min_cycle;Max_cycle;Signal;HPM_P1;HPM_P2
2021/01/23 00:02:10;;;;;;;17.40;10.00;;;;;;;4.21;68.64;99678.59;5055367;28;20037;-79
2021/01/23 00:04:36;;;;;;;16.95;10.20;;;;;;;4.22;68.89;99682.06;5054952;28;20038;-79
2021/01/23 00:07:03;;;;;;;16.25;8.98;;;;;;;4.21;68.55;99685.56;5055317;28;20036;-78
2021/01/23 00:09:29;;;;;;;22.48;10.57;;;;;;;4.20;68.83;99678.63;5054759;28;20139;-78
2021/01/23 00:11:57;;;;;;;26.40;10.55;;;;;;;4.23;68.94;99675.94;5054781;28;20491;-82
2021/01/23 00:14:23;;;;;;;24.27;11.18;;;;;;;4.20;69.09;99671.59;5055159;28;20392;-79
2021/01/23 00:16:50;;;;;;;21.67;10.80;;;;;;;4.21;68.84;99670.72;5054814;28;20023;-78
2021/01/23 00:19:17;;;;;;;18.52;10.15;;;;;;;4.20;68.93;99662.88;5054253;28;20555;-82
2021/01/23 00:21:43;;;;;;;16.92;10.52;;;;;;;4.17;69.28;99658.50;5054755;28;20060;-79
2021/01/23 00:24:09;;;;;;;21.15;11.40;;;;;;;4.18;69.17;99662.88;5054571;28;20025;-80
2021/01/23 00:26:36;;;;;;;18.67;11.52;;;;;;;4.16;68.95;99667.28;5054883;28;20110;-80
2021/01/23 00:29:02;;;;;;;17.92;11.57;;;;;;;4.19;69.38;99656.75;5054535;28;20498;-80
2021/01/23 00:31:29;;;;;;;14.07;9.90;;;;;;;4.20;68.95;99655.00;5054197;28;20075;-79
2021/01/23 00:33:55;;;;;;;14.27;10.10;;;;;;;4.22;68.92;99653.22;5054085;28;20522;-80
2021/01/23 00:36:21;;;;;;;21.67;11.80;;;;;;;4.20;69.09;99648.00;5054467;28;20029;-81
2021/01/23 00:38:48;;;;;;;18.08;10.48;;;;;;;4.17;68.90;99645.41;5054373;28;20032;-79
2021/01/23 00:41:14;;;;;;;22.38;11.20;;;;;;;4.17;69.45;99650.66;5054653;28;20551;-82
2021/01/23 00:43:44;;;;;;;19.40;11.30;;;;;;;4.17;69.66;99637.53;5054524;28;20357;-79
2021/01/23 00:46:10;;;;;;;21.92;11.25;;;;;;;4.15;69.50;99641.97;5054303;28;20078;-79
2021/01/23 00:48:37;;;;;;;18.17;11.18;;;;;;;4.16;69.70;99635.84;5054210;28;20033;-80
2021/01/23 00:51:04;;;;;;;21.73;11.10;;;;;;;4.18;69.03;99643.66;5054078;28;20439;-82
2021/01/23 00:53:30;;;;;;;23.23;11.20;;;;;;;4.17;69.25;99636.69;5054144;28;20074;-83
2021/01/23 00:55:56;;;;;;;18.98;11.68;;;;;;;4.17;69.17;99627.06;5054748;28;20098;-78
2021/01/23 00:58:23;;;;;;;18.02;11.00;;;;;;;4.18;68.98;99641.06;5053881;28;20079;-85
2021/01/23 01:00:49;;;;;;;18.77;11.32;;;;;;;4.18;69.16;99627.94;5055022;28;20032;-80
2021/01/23 01:03:16;;;;;;;17.88;11.38;;;;;;;4.18;69.57;99628.78;5054271;28;20037;-79
2021/01/23 01:05:42;;;;;;;19.80;9.57;;;;;;;4.19;69.07;99625.28;5054321;28;20036;-80
2021/01/23 01:08:08;;;;;;;23.45;10.35;;;;;;;4.22;69.52;99634.88;5053928;28;20033;-79
2021/01/23 01:10:35;;;;;;;20.25;10.43;;;;;;;4.24;69.77;99633.09;5053902;28;20025;-79
2021/01/23 01:13:01;;;;;;;16.08;10.38;;;;;;;4.30;69.67;99626.88;5054159;28;20044;-78
2021/01/23 01:15:28;;;;;;;21.70;11.35;;;;;;;4.33;69.79;99627.72;5053963;28;20053;-78
2021/01/23 01:17:54;;;;;;;16.98;10.25;;;;;;;4.34;70.36;99623.34;5054423;28;20384;-78
2021/01/23 01:20:20;;;;;;;17.58;11.20;;;;;;;4.37;70.08;99620.69;5054322;28;20044;-85
2021/01/23 01:22:47;;;;;;;20.15;12.07;;;;;;;4.38;70.44;99617.16;5054238;28;20039;-78
2021/01/23 01:25:16;;;;;;;19.63;11.15;;;;;;;4.44;70.41;99609.22;5053731;28;20025;-80
2021/01/23 01:27:43;;;;;;;19.25;12.18;;;;;;;4.44;69.83;99611.84;5053976;28;20086;-77
2021/01/23 01:30:10;;;;;;;24.02;11.73;;;;;;;4.44;70.24;99621.47;5053780;28;20025;-84
2021/01/23 01:32:36;;;;;;;24.63;11.85;;;;;;;4.38;70.32;99620.66;5054566;28;20033;-80
2021/01/23 01:35:03;;;;;;;21.35;12.25;;;;;;;4.42;70.54;99620.63;5056837;28;20116;-79
2021/01/23 01:37:30;;;;;;;20.02;12.23;;;;;;;4.48;70.01;99616.13;5057393;28;20021;-80
2021/01/23 01:39:56;;;;;;;21.73;13.25;;;;;;;4.53;69.99;99614.31;5053913;28;20040;-81
2021/01/23 01:42:23;;;;;;;20.70;12.45;;;;;;;4.56;70.08;99615.16;5053644;28;20163;-79
2021/01/23 01:44:51;;;;;;;24.38;12.27;;;;;;;4.60;70.65;99603.72;5053629;28;20059;-84
2021/01/23 01:47:18;;;;;;;20.05;12.48;;;;;;;4.69;70.76;99598.34;5053380;28;20468;-81
2021/01/23 01:49:45;;;;;;;23.40;12.85;;;;;;;4.75;70.35;99593.00;5053325;28;20043;-81
2021/01/23 01:52:14;;;;;;;16.80;12.20;;;;;;;4.84;70.68;99587.59;5053537;28;20116;-80
2021/01/23 01:54:40;;;;;;;24.90;13.68;;;;;;;4.94;70.51;99597.94;5053577;28;20036;-79
2021/01/23 01:57:07;;;;;;;24.23;13.48;;;;;;;4.91;70.52;99598.88;5053663;28;20033;-80
2021/01/23 01:59:34;;;;;;;20.65;14.13;;;;;;;4.93;70.44;99601.47;5053601;28;20052;-80
2021/01/23 02:02:40;;;;;;;22.27;14.10;;;;;;;5.06;70.02;99597.75;5053509;28;20095;-77
2021/01/23 02:11:12;;;;;;;24.00;13.95;;;;;;;5.23;70.84;99594.78;5112049;27;20596;-80
2021/01/23 02:13:45;;;;;;;27.23;15.05;;;;;;;5.27;70.52;99590.34;5112053;28;20032;-80
2021/01/23 02:16:25;;;;;;;32.67;16.70;;;;;;;5.33;70.62;99585.00;5112290;28;20455;-83
2021/01/23 02:19:03;;;;;;;35.10;16.48;;;;;;;5.35;70.50;99580.59;5111512;28;20087;-80
2021/01/23 02:24:25;;;;;;;24.23;14.85;;;;;;;5.37;71.04;99586.69;5112488;27;20868;-80
2021/01/23 02:29:50;;;;;;;27.75;16.60;;;;;;;5.50;71.06;99582.06;5072148;28;21372;-78
2021/01/23 02:32:18;;;;;;;31.42;16.95;;;;;;;5.45;71.27;99579.50;5070820;28;20053;-80
2021/01/23 02:34:47;;;;;;;29.88;16.92;;;;;;;5.52;71.09;99577.63;5071308;28;20503;-77
2021/01/23 02:37:15;;;;;;;31.98;17.58;;;;;;;5.53;71.19;99575.88;5071028;28;20066;-79
2021/01/23 02:39:42;;;;;;;26.30;16.65;;;;;;;5.57;71.09;99572.28;5070782;28;20072;-78
2021/01/23 02:42:09;;;;;;;24.13;16.27;;;;;;;5.51;71.21;99574.13;5071018;28;20534;-78
2021/01/23 02:44:35;;;;;;;29.27;16.08;;;;;;;5.58;71.49;99574.00;5070402;28;20396;-78
2021/01/23 02:47:02;;;;;;;26.80;17.35;;;;;;;5.57;71.64;99577.53;5071036;28;20025;-80
2021/01/23 02:49:28;;;;;;;26.90;17.33;;;;;;;5.63;71.35;99569.53;5070822;28;20392;-78
2021/01/23 02:52:04;;;;;;;31.05;18.02;;;;;;;5.65;70.78;99571.22;5070239;28;20033;-80
2021/01/23 02:54:55;;;;;;;33.17;18.65;;;;;;;5.67;71.17;99569.44;5070677;28;20091;-77
2021/01/23 02:57:23;;;;;;;24.92;16.35;;;;;;;5.69;71.14;99566.78;5070533;28;20388;-79
2021/01/23 02:59:55;;;;;;;26.45;15.82;;;;;;;5.71;71.09;99557.09;5069633;28;20463;-79
2021/01/23 03:02:23;;;;;;;29.27;16.45;;;;;;;5.71;70.84;99551.84;5070227;28;20040;-78
2021/01/23 03:04:52;;;;;;;27.23;16.67;;;;;;;5.59;71.44;99557.34;5070838;28;20031;-76
2021/01/23 03:07:19;;;;;;;24.33;16.13;;;;;;;5.68;71.27;99551.91;5070919;28;20037;-77
2021/01/23 03:09:45;;;;;;;28.17;16.17;;;;;;;5.67;70.97;99544.94;5068298;28;20081;-77
2021/01/23 03:12:12;;;;;;;28.50;17.08;;;;;;;5.65;70.86;99550.19;5069986;28;20364;-80
2021/01/23 03:14:38;;;;;;;26.67;14.43;;;;;;;5.63;70.70;99551.13;5070888;28;20031;-79
2021/01/23 03:17:06;;;;;;;24.52;14.75;;;;;;;5.62;70.48;99552.03;5070450;28;20079;-78
2021/01/23 03:19:32;;;;;;;26.75;15.32;;;;;;;5.55;70.57;99548.66;5067354;28;20033;-79
2021/01/23 03:21:59;;;;;;;33.28;17.27;;;;;;;5.53;70.93;99546.97;5067454;28;20464;-78
2021/01/23 03:24:26;;;;;;;26.92;14.95;;;;;;;5.47;71.05;99545.31;5070307;28;20379;-78
2021/01/23 03:26:52;;;;;;;22.20;15.73;;;;;;;5.49;70.85;99536.50;5070073;28;20059;-77
2021/01/23 03:29:19;;;;;;;24.83;16.30;;;;;;;5.50;70.85;99542.66;5070042;28;20040;-84
2021/01/23 03:31:47;;;;;;;25.27;14.85;;;;;;;5.50;70.46;99546.13;5070152;28;20059;-79
2021/01/23 03:34:14;;;;;;;27.08;13.77;;;;;;;5.48;70.57;99541.78;5068356;28;20467;-77
2021/01/23 03:36:40;;;;;;;28.55;15.57;;;;;;;5.44;70.51;99535.72;5069375;28;20036;-78
2021/01/23 03:39:08;;;;;;;24.35;15.18;;;;;;;5.43;70.29;99539.28;5066951;28;20052;-77
2021/01/23 03:41:35;;;;;;;25.35;15.15;;;;;;;5.38;70.28;99533.22;5056562;28;20369;-79
2021/01/23 03:44:02;;;;;;;28.80;15.90;;;;;;;5.35;70.35;99533.31;5056435;28;20418;-78
2021/01/23 03:46:28;;;;;;;23.92;14.68;;;;;;;5.32;70.35;99530.72;5057298;28;20086;-77
2021/01/23 03:48:54;;;;;;;23.80;15.55;;;;;;;5.31;70.33;99521.13;5056333;28;20037;-78
2021/01/23 03:51:21;;;;;;;23.88;14.43;;;;;;;5.32;70.35;99522.84;5056694;28;20029;-78
2021/01/23 03:53:47;;;;;;;29.65;16.08;;;;;;;5.22;70.68;99523.94;5056165;28;20025;-78
2021/01/23 03:56:14;;;;;;;21.38;14.35;;;;;;;5.25;70.56;99518.63;5055038;28;20025;-78
2021/01/23 03:58:40;;;;;;;37.22;17.42;;;;;;;5.16;70.86;99519.69;5056131;28;20078;-78
2021/01/23 04:01:07;;;;;;;32.10;16.48;;;;;;;5.17;70.81;99519.63;5054973;28;20432;-77
2021/01/23 04:03:33;;;;;;;29.60;16.45;;;;;;;5.26;70.04;99525.59;5056060;28;20033;-79
2021/01/23 04:05:59;;;;;;;32.00;17.75;;;;;;;5.24;70.03;99532.66;5056200;28;20028;-78
2021/01/23 04:08:26;;;;;;;28.30;15.60;;;;;;;5.23;70.64;99517.78;5055961;28;20044;-78
2021/01/23 04:10:52;;;;;;;29.13;16.15;;;;;;;5.19;70.39;99525.72;5056140;28;20060;-77
2021/01/23 04:13:19;;;;;;;26.88;16.08;;;;;;;5.21;70.02;99522.19;5056486;28;20033;-79
2021/01/23 04:15:45;;;;;;;28.75;15.45;;;;;;;5.14;70.54;99524.09;5056438;28;20025;-78
2021/01/23 04:18:12;;;;;;;27.52;16.63;;;;;;;5.07;70.12;99515.47;5056039;28;20080;-80
2021/01/23 04:20:38;;;;;;;23.48;15.10;;;;;;;5.04;70.13;99512.88;5056083;28;20040;-78
2021/01/23 04:23:05;;;;;;;24.60;16.13;;;;;;;5.06;70.09;99520.72;5055042;28;20472;-77
2021/01/23 04:25:31;;;;;;;28.00;16.27;;;;;;;5.03;70.31;99521.66;5053494;28;20388;-77
2021/01/23 04:27:58;;;;;;;25.17;16.38;;;;;;;5.02;70.60;99522.53;5055228;28;20500;-79
2021/01/23 04:30:24;;;;;;;27.80;16.52;;;;;;;5.04;70.82;99526.00;5055788;28;20380;-79
2021/01/23 04:32:51;;;;;;;22.00;15.88;;;;;;;5.18;70.55;99524.00;5054308;28;20037;-77
2021/01/23 04:35:27;;;;;;;24.23;16.02;;;;;;;5.21;70.82;99522.19;5055624;28;20025;-76
2021/01/23 04:38:00;;;;;;;30.40;17.05;;;;;;;5.22;71.16;99518.69;5054981;28;20028;-77
2021/01/23 04:40:32;;;;;;;28.50;16.95;;;;;;;5.21;71.67;99527.44;5055234;28;20033;-77
2021/01/23 04:42:59;;;;;;;27.40;17.88;;;;;;;5.25;71.26;99513.38;5055575;28;20029;-79
2021/01/23 04:45:25;;;;;;;26.92;16.35;;;;;;;5.33;71.41;99506.19;5055854;28;20037;-78
2021/01/23 04:47:53;;;;;;;27.63;16.27;;;;;;;5.43;71.32;99513.00;5055015;28;20044;-82
2021/01/23 04:50:20;;;;;;;27.75;16.75;;;;;;;5.44;71.34;99519.13;5055040;28;20087;-78
2021/01/23 04:52:46;;;;;;;33.20;17.38;;;;;;;5.52;71.15;99517.22;5054209;28;20047;-79
2021/01/23 04:55:13;;;;;;;29.45;17.10;;;;;;;5.57;71.32;99501.34;5055878;28;20021;-78
2021/01/23 04:57:43;;;;;;;25.00;16.23;;;;;;;5.63;71.13;99514.34;5055213;28;20032;-78
2021/01/23 05:00:10;;;;;;;26.25;16.27;;;;;;;5.56;71.18;99507.47;5054758;28;20029;-78
2021/01/23 05:02:36;;;;;;;23.63;15.63;;;;;;;5.66;71.35;99509.88;5055337;28;20025;-79
2021/01/23 05:05:05;;;;;;;26.20;15.73;;;;;;;5.68;71.42;99512.47;5055036;28;20033;-78
2021/01/23 05:13:01;;;;;;;21.90;14.05;;;;;;;5.74;71.47;99514.97;5112116;27;20363;-79
2021/01/23 05:15:30;;;;;;;28.20;14.13;;;;;;;5.82;70.98;99502.53;5111719;28;20058;-78
2021/01/23 05:20:45;;;;;;;22.25;12.90;;;;;;;5.92;71.22;99507.59;5112023;27;20364;-77
2021/01/23 05:25:59;;;;;;;17.30;12.63;;;;;;;5.96;70.74;99518.00;5112371;27;20830;-82
2021/01/23 05:31:18;;;;;;;18.88;11.35;;;;;;;6.00;70.60;99516.19;5111975;27;20359;-78
2021/01/23 05:33:46;;;;;;;19.27;12.02;;;;;;;6.04;70.78;99507.34;5111759;28;20479;-79
2021/01/23 05:36:14;;;;;;;17.80;12.15;;;;;;;6.04;70.95;99493.34;5111466;28;20055;-79
2021/01/23 05:41:19;;;;;;;15.43;10.20;;;;;;;6.06;70.54;99497.66;5111961;27;20378;-79
2021/01/23 05:46:31;;;;;;;17.98;9.65;;;;;;;6.01;70.41;99504.78;5112005;27;20681;-82
2021/01/23 05:48:58;;;;;;;12.68;8.90;;;;;;;6.04;70.75;99504.72;5111483;28;20056;-79
2021/01/23 05:51:25;;;;;;;15.13;8.20;;;;;;;6.05;70.51;99498.56;5111864;28;20122;-79
2021/01/23 05:53:52;;;;;;;12.77;7.75;;;;;;;6.22;69.97;99503.44;5111463;28;20031;-78
2021/01/23 05:56:19;;;;;;;12.30;7.82;;;;;;;6.15;70.29;99502.69;5111586;28;20059;-78
2021/01/23 05:58:46;;;;;;;13.75;7.88;;;;;;;6.12;69.92;99492.25;5111387;28;20057;-77
2021/01/23 06:01:21;;;;;;;12.43;7.05;;;;;;;6.25;69.73;99484.06;5112209;28;20531;-82
2021/01/23 06:03:58;;;;;;;11.60;6.85;;;;;;;5.95;70.06;99481.25;5112772;28;20047;-78
2021/01/23 06:06:24;;;;;;;12.13;6.93;;;;;;;6.10;69.96;99485.31;5111675;28;20035;-78
2021/01/23 06:08:52;;;;;;;9.93;7.43;;;;;;;6.21;69.54;99496.44;5111555;28;20501;-79
2021/01/23 06:14:01;;;;;;;9.82;7.10;;;;;;;6.35;68.81;99488.19;5091414;27;20392;-78
2021/01/23 06:21:57;;;;;;;13.77;7.45;;;;;;;6.34;68.00;99493.50;5112250;27;20359;-78
2021/01/23 06:27:13;;;;;;;16.67;7.72;;;;;;;6.11;68.60;99511.56;5112223;27;20355;-78
2021/01/23 06:29:41;;;;;;;10.85;6.97;;;;;;;5.87;69.76;99517.34;5111777;28;20036;-76
2021/01/23 06:34:57;;;;;;;17.55;7.75;;;;;;;6.29;68.70;99515.53;5134061;27;752711;-76
2021/01/23 06:45:47;;;;;;;8.40;6.05;;;;;;;5.88;70.19;99524.34;5133122;23;20165;-80
2021/01/23 06:48:13;;;;;;;10.55;5.93;;;;;;;5.86;70.11;99520.84;4988427;28;20095;-79
2021/01/23 06:50:42;;;;;;;12.32;6.68;;;;;;;6.09;69.72;99529.16;5003112;28;20109;-77
2021/01/23 06:53:22;;;;;;;12.32;6.10;;;;;;;6.28;68.97;99519.06;5010974;28;20085;-79
2021/01/23 06:55:53;;;;;;;12.38;6.82;;;;;;;6.13;69.24;99528.19;5010856;28;20030;-81
2021/01/23 07:01:16;;;;;;;11.65;5.95;;;;;;;6.09;69.49;99523.00;5111333;27;20382;-78
2021/01/23 07:03:43;;;;;;;9.90;6.00;;;;;;;6.09;69.14;99517.75;5111573;28;20384;-78
2021/01/23 07:06:09;;;;;;;10.63;5.60;;;;;;;5.99;69.15;99517.97;5111522;28;20028;-78
2021/01/23 07:08:37;;;;;;;11.27;6.15;;;;;;;5.96;69.31;99527.66;5111264;28;20124;-79
2021/01/23 07:14:06;;;;;;;12.60;5.63;;;;;;;6.36;68.06;99521.50;5090957;27;20378;-77
2021/01/23 07:16:36;;;;;;;12.05;5.75;;;;;;;6.31;68.32;99521.59;5091246;28;20037;-78
2021/01/23 07:19:04;;;;;;;7.65;5.60;;;;;;;6.06;68.65;99536.25;5095533;28;20029;-77
2021/01/23 07:21:34;;;;;;;9.25;5.45;;;;;;;6.05;68.85;99522.22;5092624;28;20025;-77
2021/01/23 07:24:02;;;;;;;11.00;6.55;;;;;;;5.87;69.22;99522.59;5070853;28;20032;-79
2021/01/23 07:26:28;;;;;;;12.60;6.85;;;;;;;5.72;69.46;99532.56;5071104;28;20029;-77
2021/01/23 07:28:56;;;;;;;12.93;6.55;;;;;;;5.76;69.30;99539.47;5071184;28;20060;-80
2021/01/23 07:31:29;;;;;;;10.77;6.32;;;;;;;5.62;69.71;99547.66;5081397;28;20111;-79
2021/01/23 07:33:57;;;;;;;9.30;5.65;;;;;;;5.48;69.57;99542.69;5090746;28;20028;-79
2021/01/23 07:36:40;;;;;;;13.05;6.70;;;;;;;5.69;69.18;99547.53;5090316;28;20478;-81
2021/01/23 07:39:09;;;;;;;12.85;5.95;;;;;;;5.63;69.00;99545.88;5090600;28;20059;-79
2021/01/23 07:41:38;;;;;;;11.48;7.05;;;;;;;5.57;69.21;99551.25;5090641;28;20044;-77
2021/01/23 07:44:08;;;;;;;12.80;6.72;;;;;;;5.54;69.17;99554.81;5090468;28;20024;-79
2021/01/23 07:46:37;;;;;;;10.13;6.05;;;;;;;5.55;69.23;99558.31;5091045;28;20024;-79
2021/01/23 07:49:05;;;;;;;13.30;7.28;;;;;;;5.58;68.91;99566.13;5090876;28;20033;-80
2021/01/23 07:51:31;;;;;;;12.52;7.05;;;;;;;5.50;69.10;99568.91;5090296;28;20369;-79
2021/01/23 07:54:07;;;;;;;11.43;6.25;;;;;;;5.54;69.32;99580.22;5090405;28;20217;-81
2021/01/23 07:56:34;;;;;;;11.00;5.78;;;;;;;5.53;69.18;99578.50;5089576;28;20039;-79
2021/01/23 07:59:01;;;;;;;11.05;5.82;;;;;;;5.60;69.21;99577.47;5090334;28;20490;-79
2021/01/23 08:01:27;;;;;;;9.45;5.70;;;;;;;5.64;69.36;99581.78;5090338;28;20479;-79
2021/01/23 08:03:54;;;;;;;10.23;4.85;;;;;;;5.59;69.56;99586.25;5090454;28;20530;-79
2021/01/23 08:06:23;;;;;;;13.07;5.90;;;;;;;5.73;69.37;99589.47;5090134;28;20503;-79
2021/01/23 08:08:50;;;;;;;7.47;5.40;;;;;;;5.82;69.31;99594.53;5090358;28;20032;-80
2021/01/23 08:11:38;;;;;;;10.18;5.38;;;;;;;5.88;68.75;99590.06;5088325;28;20028;-81
2021/01/23 08:14:11;;;;;;;9.50;5.65;;;;;;;6.05;68.98;99585.31;5090703;28;20071;-81
2021/01/23 08:16:55;;;;;;;11.30;5.53;;;;;;;5.98;68.88;99589.88;5089545;28;20027;-80
2021/01/23 08:19:21;;;;;;;10.63;5.57;;;;;;;5.97;69.53;99593.34;5087499;28;20025;-78
2021/01/23 08:22:07;;;;;;;13.35;6.38;;;;;;;6.12;69.55;99580.81;5089099;28;20032;-80
2021/01/23 08:24:34;;;;;;;14.05;6.10;;;;;;;6.02;69.63;99585.41;5076345;28;20124;-81
2021/01/23 08:27:18;;;;;;;14.90;7.35;;;;;;;6.12;69.55;99586.94;5075386;28;20525;-80
2021/01/23 08:29:46;;;;;;;19.05;7.00;;;;;;;6.13;69.72;99591.28;5075488;28;20025;-80
2021/01/23 08:32:12;;;;;;;508.92;273.55;;;;;;;6.17;69.81;99593.84;5076620;28;20024;-81
2021/01/23 08:34:39;;;;;;;68.97;31.33;;;;;;;6.13;69.77;99588.66;5075873;28;20036;-80
2021/01/23 08:37:06;;;;;;;39.00;16.77;;;;;;;6.29;69.05;99593.56;5073034;28;20225;-79
2021/01/23 08:39:50;;;;;;;14.38;8.68;;;;;;;6.32;69.39;99604.03;5074519;28;20079;-80
2021/01/23 08:42:18;;;;;;;12.48;7.78;;;;;;;6.26;69.46;99605.03;5073809;28;20021;-80
2021/01/23 08:44:44;;;;;;;15.88;7.57;;;;;;;6.10;70.03;99614.16;5075397;28;20029;-81
2021/01/23 08:47:10;;;;;;;12.73;6.43;;;;;;;6.29;69.42;99596.19;5074995;28;20422;-80
2021/01/23 08:49:36;;;;;;;15.30;7.30;;;;;;;6.35;69.03;99601.31;5075185;28;20116;-79
2021/01/23 08:52:02;;;;;;;13.00;8.77;;;;;;;6.41;69.19;99593.28;5075899;28;20532;-79
2021/01/23 08:54:29;;;;;;;11.95;6.82;;;;;;;6.44;69.31;99601.13;5074808;28;20025;-83
2021/01/23 08:56:55;;;;;;;14.65;7.80;;;;;;;6.47;69.28;99598.41;5074641;28;20109;-79
2021/01/23 08:59:21;;;;;;;10.07;6.50;;;;;;;6.38;69.83;99609.16;5074945;28;20028;-81
2021/01/23 09:01:47;;;;;;;12.75;7.00;;;;;;;6.48;69.31;99602.78;5075427;28;20040;-81
2021/01/23 09:04:14;;;;;;;12.68;7.20;;;;;;;6.44;69.53;99603.75;5075657;28;20082;-80
2021/01/23 09:06:40;;;;;;;15.65;7.93;;;;;;;6.51;69.20;99606.25;5075648;28;20093;-80
2021/01/23 09:09:06;;;;;;;11.93;7.13;;;;;;;6.45;69.92;99605.47;5074906;28;20356;-79
2021/01/23 09:11:36;;;;;;;14.63;7.47;;;;;;;6.27;70.74;99598.03;5075868;28;20062;-80
2021/01/23 09:14:03;;;;;;;12.18;7.43;;;;;;;6.31;70.28;99607.56;5078157;28;20466;-82
2021/01/23 09:16:29;;;;;;;11.35;7.20;;;;;;;6.30;70.25;99598.78;5075578;28;20116;-85
2021/01/23 09:18:56;;;;;;;44.13;21.33;;;;;;;6.45;70.10;99596.72;5075896;28;20024;-81
2021/01/23 09:21:22;;;;;;;13.13;8.10;;;;;;;6.48;70.04;99597.53;5073817;28;20040;-84
2021/01/23 09:23:48;;;;;;;17.23;7.82;;;;;;;6.55;69.91;99602.66;5075197;28;20063;-81
2021/01/23 09:26:14;;;;;;;17.60;7.85;;;;;;;6.56;69.79;99602.59;5074436;28;20025;-79
2021/01/23 09:28:40;;;;;;;15.18;7.25;;;;;;;6.62;69.72;99593.72;5074211;28;20052;-86
2021/01/23 09:31:07;;;;;;;14.02;6.63;;;;;;;6.60;69.86;99598.13;5074168;28;20471;-79
2021/01/23 09:33:33;;;;;;;19.60;6.30;;;;;;;6.51;70.12;99599.22;5074585;28;20115;-80
2021/01/23 09:36:00;;;;;;;12.07;6.05;;;;;;;6.33;70.50;99595.25;5073514;28;20021;-81
2021/01/23 09:38:27;;;;;;;9.55;6.07;;;;;;;6.44;69.86;99606.41;5073832;28;20032;-88
2021/01/23 09:40:54;;;;;;;11.60;5.82;;;;;;;6.29;70.51;99602.34;5074207;28;20032;-81
2021/01/23 09:43:20;;;;;;;14.20;6.90;;;;;;;6.45;69.91;99608.09;5075018;28;20032;-84
2021/01/23 09:45:46;;;;;;;15.40;6.97;;;;;;;6.47;70.16;99610.72;5073842;28;20082;-86
2021/01/23 09:48:13;;;;;;;13.20;6.75;;;;;;;6.43;70.32;99603.78;5073726;28;20029;-85
2021/01/23 09:50:40;;;;;;;13.07;6.72;;;;;;;6.45;70.21;99602.84;5073955;28;20032;-84
2021/01/23 09:53:07;;;;;;;14.73;7.00;;;;;;;6.56;69.84;99597.34;5070492;28;20081;-89
2021/01/23 09:55:33;;;;;;;12.30;7.25;;;;;;;6.58;69.99;99597.28;5073494;28;20497;-87
2021/01/23 09:57:59;;;;;;;15.85;8.00;;;;;;;6.61;70.01;99597.22;5072874;28;20108;-88
2021/01/23 10:00:26;;;;;;;13.82;7.53;;;;;;;6.53;70.18;99609.69;5074228;28;20031;-79
2021/01/23 10:02:52;;;;;;;25.58;11.90;;;;;;;6.67;69.94;99597.09;5075035;28;20021;-86
2021/01/23 10:05:18;;;;;;;19.90;9.15;;;;;;;6.61;70.20;99591.97;5073850;28;20029;-82
2021/01/23 10:07:45;;;;;;;19.38;8.77;;;;;;;6.72;70.07;99586.47;5074280;28;20041;-80
2021/01/23 10:10:11;;;;;;;18.48;8.75;;;;;;;6.82;70.16;99585.31;5074162;28;20099;-83
2021/01/23 10:12:38;;;;;;;16.33;9.70;;;;;;;6.89;70.21;99586.03;5073553;28;20041;-85
2021/01/23 10:15:05;;;;;;;16.40;8.85;;;;;;;6.80;70.31;99585.38;5072772;28;20035;-83
2021/01/23 10:17:31;;;;;;;19.73;10.48;;;;;;;6.87;70.25;99587.84;5074390;28;20035;-79
2021/01/23 10:19:57;;;;;;;15.45;10.65;;;;;;;6.96;69.56;99574.44;5074002;28;20021;-80
2021/01/23 10:22:23;;;;;;;16.95;10.65;;;;;;;6.98;70.13;99583.16;5074069;28;20024;-81
2021/01/23 10:24:50;;;;;;;13.60;9.52;;;;;;;7.18;69.66;99577.38;5073524;28;20025;-80
2021/01/23 10:27:16;;;;;;;17.08;10.27;;;;;;;7.34;69.75;99583.13;5073885;28;20043;-81
2021/01/23 10:29:43;;;;;;;17.70;10.77;;;;;;;7.34;69.33;99591.03;5073845;28;20042;-80
2021/01/23 10:32:09;;;;;;;16.65;10.55;;;;;;;7.50;69.84;99585.31;5073396;28;20356;-81
2021/01/23 10:34:36;;;;;;;19.08;10.15;;;;;;;7.67;69.35;99585.72;5073761;28;20032;-80
2021/01/23 10:37:03;;;;;;;14.32;8.70;;;;;;;7.54;69.07;99598.38;5073850;28;20033;-80
2021/01/23 10:39:29;;;;;;;13.13;8.95;;;;;;;7.84;68.39;99597.53;5073522;28;20478;-79
2021/01/23 10:41:55;;;;;;;16.48;9.02;;;;;;;7.61;68.59;99585.88;5073558;28;20028;-80
2021/01/23 10:44:21;;;;;;;17.00;8.63;;;;;;;7.70;68.02;99588.28;5073426;28;20039;-79
2021/01/23 10:46:47;;;;;;;14.75;8.18;;;;;;;7.69;67.67;99591.81;5073061;28;20042;-79
2021/01/23 10:49:13;;;;;;;12.10;8.02;;;;;;;7.49;68.29;99594.13;5072725;28;20029;-79
2021/01/23 10:51:39;;;;;;;11.52;7.20;;;;;;;7.67;66.97;99590.97;5072557;28;20453;-79
2021/01/23 10:54:06;;;;;;;14.30;7.82;;;;;;;7.68;66.87;99589.22;5072589;28;20394;-80
2021/01/23 10:56:33;;;;;;;12.52;7.90;;;;;;;7.60;67.05;99585.03;5073165;28;20155;-80
2021/01/23 10:59:02;;;;;;;13.88;8.90;;;;;;;7.40;67.59;99590.84;5073686;28;20072;-80
2021/01/23 11:01:30;;;;;;;15.98;8.45;;;;;;;7.61;67.19;99584.13;5073324;28;20439;-80
2021/01/23 11:03:57;;;;;;;10.65;8.30;;;;;;;7.78;67.40;99581.00;5073392;28;20449;-79
2021/01/23 11:06:24;;;;;;;12.07;8.95;;;;;;;7.76;66.81;99588.09;5073086;28;20107;-80
2021/01/23 11:08:51;;;;;;;14.73;10.38;;;;;;;7.84;66.47;99579.06;5073602;28;20032;-80
2021/01/23 11:11:17;;;;;;;14.18;9.75;;;;;;;7.97;65.76;99577.81;5072734;28;20024;-79
2021/01/23 11:13:43;;;;;;;15.55;9.18;;;;;;;7.93;65.88;99584.09;5073516;28;20119;-80
2021/01/23 11:16:10;;;;;;;13.35;9.57;;;;;;;8.02;65.74;99583.81;5072745;28;20463;-80
2021/01/23 11:18:36;;;;;;;14.27;9.82;;;;;;;8.05;65.44;99590.78;5072527;28;20071;-79
2021/01/23 11:21:05;;;;;;;14.07;9.88;;;;;;;8.14;65.92;99587.00;5072458;28;20032;-80
2021/01/23 11:23:31;;;;;;;15.90;9.90;;;;;;;8.05;66.12;99588.13;5072717;28;20070;-85
2021/01/23 11:25:57;;;;;;;20.83;10.52;;;;;;;7.99;65.74;99589.19;5073182;28;20032;-82
2021/01/23 11:28:23;;;;;;;16.45;11.20;;;;;;;7.83;66.59;99590.56;5072519;28;20025;-83
2021/01/23 11:30:53;;;;;;;13.88;10.75;;;;;;;7.90;65.98;99587.69;5073105;28;20024;-82
2021/01/23 11:33:20;;;;;;;16.85;12.45;;;;;;;7.91;64.87;99592.06;5070976;28;20051;-82
2021/01/23 11:35:46;;;;;;;15.80;10.60;;;;;;;8.15;64.77;99588.72;5072107;28;20021;-84
2021/01/23 11:38:13;;;;;;;15.85;10.52;;;;;;;7.97;65.26;99575.19;5072683;28;20028;-82
2021/01/23 11:40:39;;;;;;;18.30;11.07;;;;;;;7.97;64.73;99585.72;5072848;28;20107;-82
2021/01/23 11:43:05;;;;;;;15.05;10.25;;;;;;;8.14;64.86;99581.72;5072511;28;20051;-81
2021/01/23 11:45:31;;;;;;;14.70;9.68;;;;;;;8.16;64.16;99585.19;5072601;28;20490;-82
2021/01/23 11:47:57;;;;;;;15.60;8.85;;;;;;;8.17;65.33;99581.63;5072634;28;20055;-85
2021/01/23 11:50:23;;;;;;;12.68;7.70;;;;;;;8.32;64.20;99575.03;5072426;28;20382;-87
2021/01/23 11:52:50;;;;;;;12.98;7.13;;;;;;;8.28;64.59;99582.16;5072277;28;20116;-85
2021/01/23 11:55:16;;;;;;;13.13;7.90;;;;;;;8.24;65.08;99577.91;5073429;28;20063;-84
2021/01/23 11:57:42;;;;;;;11.38;7.25;;;;;;;8.42;64.42;99572.06;5073102;28;20016;-82
2021/01/23 12:00:11;;;;;;;9.20;7.07;;;;;;;8.05;65.57;99567.03;5074267;28;20128;-82
2021/01/23 12:02:37;;;;;;;13.20;7.15;;;;;;;7.98;65.15;99563.72;5075981;28;20119;-83
2021/01/23 12:05:05;;;;;;;9.23;6.40;;;;;;;8.10;65.19;99558.06;5074586;28;20078;-85
2021/01/23 12:07:32;;;;;;;12.35;7.18;;;;;;;8.15;64.70;99552.66;5074544;28;20082;-83
2021/01/23 12:09:59;;;;;;;10.02;6.10;;;;;;;8.18;64.52;99551.72;5074827;28;20035;-87
2021/01/23 12:12:25;;;;;;;12.32;6.10;;;;;;;8.52;63.09;99545.38;5075474;28;20067;-82
2021/01/23 12:14:51;;;;;;;10.43;6.80;;;;;;;8.31;63.14;99539.88;5075241;28;20017;-82
2021/01/23 12:17:18;;;;;;;10.32;7.00;;;;;;;8.25;63.88;99545.34;5075097;28;20379;-82
2021/01/23 12:19:44;;;;;;;9.85;6.00;;;;;;;8.28;63.94;99532.03;5075993;28;20050;-78
2021/01/23 12:22:11;;;;;;;12.05;6.53;;;;;;;8.35;63.74;99535.31;5076020;28;20069;-81
2021/01/23 12:24:37;;;;;;;9.15;7.18;;;;;;;8.63;62.41;99527.41;5076600;28;20040;-84
2021/01/23 12:27:04;;;;;;;12.18;7.43;;;;;;;8.79;62.49;99532.19;5075840;28;20025;-82
2021/01/23 12:29:34;;;;;;;13.93;9.38;;;;;;;8.77;61.18;99534.03;5073113;28;20036;-82
2021/01/23 12:32:04;;;;;;;10.27;6.65;;;;;;;8.76;62.37;99532.28;5075585;28;20033;-82